sensor_id;sensor_type;location;lat;lon;timestamp;pressure;altitude;pressure_sealevel;temperature;humidity
56270;BME280;42176;43.240;27.880;2023-03-15T00:01:10;99492.94;;;4.99;100.00
56270;BME280;42176;43.240;27.880;2023-03-15T00:03:39;99495.56;;;5.02;100.00
56270;BME280;42176;43.240;27.880;2023-03-15T00:06:04;99487.75;;;4.96;100.00
56270;BME280;42176;43.240;27.880;2023-03-15T00:08:30;99485.94;;;4.98;100.00
56270;BME280;42176;43.240;27.880;2023-03-15T00:11:00;99480.63;;;5.08;100.00
56270;BME280;42176;43.240;27.880;2023-03-15T00:13:26;99476.97;;;5.21;100.00
56270;BME280;42176;43.240;27.880;2023-03-15T00:15:56;99476.97;;;5.21;100.00
56270;BME280;42176;43.240;27.880;2023-03-15T00:18:21;99470.97;;;5.10;100.00
56270;BME280;42176;43.240;27.880;2023-03-15T00:20:47;99463.16;;;5.03;100.00
56270;BME280;42176;43.240;27.880;2023-03-15T00:23:13;99452.66;;;5.00;100.00
56270;BME280;42176;43.240;27.880;2023-03-15T00:25:39;99460.59;;;4.96;100.00
56270;BME280;42176;43.240;27.880;2023-03-15T00:28:05;99458.03;;;4.91;100.00
56270;BME280;42176;43.240;27.880;2023-03-15T00:30:31;99452.72;;;4.97;100.00
56270;BME280;42176;43.240;27.880;2023-03-15T00:32:56;99456.13;;;5.06;100.00
56270;BME280;42176;43.240;27.880;2023-03-15T00:35:22;99435.94;;;5.09;100.00
56270;BME280;42176;43.240;27.880;2023-03-15T00:37:48;99435.13;;;5.02;100.00
56270;BME280;42176;43.240;27.880;2023-03-15T00:40:14;99446.38;;;5.15;100.00
56270;BME280;42176;43.240;27.880;2023-03-15T00:42:40;99433.22;;;5.17;100.00
56270;BME280;42176;43.240;27.880;2023-03-15T00:45:06;99434.03;;;5.24;100.00
56270;BME280;42176;43.240;27.880;2023-03-15T00:47:32;99429.72;;;5.18;100.00
56270;BME280;42176;43.240;27.880;2023-03-15T00:49:57;99431.47;;;5.16;100.00
56270;BME280;42176;43.240;27.880;2023-03-15T00:52:22;99413.88;;;5.24;100.00
56270;BME280;42176;43.240;27.880;2023-03-15T00:54:52;99420.72;;;5.38;100.00
56270;BME280;42176;43.240;27.880;2023-03-15T00:57:18;99384.97;;;5.23;100.00
56270;BME280;42176;43.240;27.880;2023-03-15T00:59:44;99395.28;;;5.41;100.00
56270;BME280;42176;43.240;27.880;2023-03-15T01:02:10;99396.31;;;5.29;100.00
56270;BME280;42176;43.240;27.880;2023-03-15T01:04:35;99383.38;;;5.12;100.00
56270;BME280;42176;43.240;27.880;2023-03-15T01:07:01;99389.50;;;5.13;100.00
56270;BME280;42176;43.240;27.880;2023-03-15T01:09:27;99384.16;;;5.19;100.00
56270;BME280;42176;43.240;27.880;2023-03-15T01:11:52;99370.06;;;5.26;100.00
56270;BME280;42176;43.240;27.880;2023-03-15T01:14:18;99378.88;;;5.22;100.00
56270;BME280;42176;43.240;27.880;2023-03-15T01:16:44;99373.81;;;5.07;100.00
56270;BME280;42176;43.240;27.880;2023-03-15T01:19:13;99372.03;;;5.09;100.00
56270;BME280;42176;43.240;27.880;2023-03-15T01:21:38;99378.91;;;5.19;100.00
56270;BME280;42176;43.240;27.880;2023-03-15T01:24:04;99374.53;;;5.20;100.00
56270;BME280;42176;43.240;27.880;2023-03-15T01:26:30;99369.28;;;5.18;100.00
56270;BME280;42176;43.240;27.880;2023-03-15T01:28:55;99357.97;;;5.13;100.00
56270;BME280;42176;43.240;27.880;2023-03-15T01:31:27;99362.41;;;5.08;100.00
56270;BME280;42176;43.240;27.880;2023-03-15T01:33:53;99359.66;;;5.17;100.00
56270;BME280;42176;43.240;27.880;2023-03-15T01:36:19;99357.09;;;5.12;100.00
56270;BME280;42176;43.240;27.880;2023-03-15T01:38:45;99359.63;;;5.20;100.00
56270;BME280;42176;43.240;27.880;2023-03-15T01:41:12;99367.53;;;5.17;100.00
56270;BME280;42176;43.240;27.880;2023-03-15T01:43:38;99363.25;;;5.08;100.00
56270;BME280;42176;43.240;27.880;2023-03-15T01:46:25;99359.59;;;5.23;100.00
56270;BME280;42176;43.240;27.880;2023-03-15T01:53:58;99359.53;;;5.29;100.00
56270;BME280;42176;43.240;27.880;2023-03-15T01:56:26;99358.63;;;5.29;100.00
56270;BME280;42176;43.240;27.880;2023-03-15T01:58:52;99342.22;;;5.13;100.00
56270;BME280;42176;43.240;27.880;2023-03-15T02:01:20;99347.28;;;5.28;100.00
56270;BME280;42176;43.240;27.880;2023-03-15T02:03:49;99340.31;;;5.24;100.00
56270;BME280;42176;43.240;27.880;2023-03-15T02:06:18;99351.91;;;5.08;100.00
56270;BME280;42176;43.240;27.880;2023-03-15T02:08:49;99352.75;;;5.10;100.00
56270;BME280;42176;43.240;27.880;2023-03-15T02:11:18;99332.63;;;5.09;100.00
56270;BME280;42176;43.240;27.880;2023-03-15T02:13:47;99344.75;;;5.19;100.00
56270;BME280;42176;43.240;27.880;2023-03-15T02:16:13;99337.03;;;5.07;100.00
56270;BME280;42176;43.240;27.880;2023-03-15T02:18:38;99336.00;;;5.18;100.00
56270;BME280;42176;43.240;27.880;2023-03-15T02:21:41;99335.25;;;5.09;100.00
56270;BME280;42176;43.240;27.880;2023-03-15T02:26:56;99349.38;;;4.98;100.00
56270;BME280;42176;43.240;27.880;2023-03-15T02:29:24;99354.56;;;5.05;100.00
56270;BME280;42176;43.240;27.880;2023-03-15T02:31:51;99352.06;;;4.94;100.00
56270;BME280;42176;43.240;27.880;2023-03-15T02:34:16;99358.16;;;4.97;100.00
56270;BME280;42176;43.240;27.880;2023-03-15T02:36:42;99352.84;;;5.00;100.00
56270;BME280;42176;43.240;27.880;2023-03-15T02:39:19;99347.53;;;5.07;100.00
56270;BME280;42176;43.240;27.880;2023-03-15T02:41:52;99345.13;;;4.90;100.00
56270;BME280;42176;43.240;27.880;2023-03-15T02:46:47;99353.59;;;5.10;100.00
56270;BME280;42176;43.240;27.880;2023-03-15T02:49:15;99334.50;;;4.99;100.00
56270;BME280;42176;43.240;27.880;2023-03-15T02:51:41;99348.19;;;5.23;100.00
56270;BME280;42176;43.240;27.880;2023-03-15T02:54:07;99349.25;;;5.11;100.00
56270;BME280;42176;43.240;27.880;2023-03-15T02:56:33;99359.66;;;5.17;100.00
56270;BME280;42176;43.240;27.880;2023-03-15T02:58:58;99343.00;;;5.18;100.00
56270;BME280;42176;43.240;27.880;2023-03-15T03:01:24;99347.38;;;5.19;100.00
56270;BME280;42176;43.240;27.880;2023-03-15T03:03:49;99352.59;;;5.22;100.00
56270;BME280;42176;43.240;27.880;2023-03-15T03:06:16;99354.41;;;5.17;100.00
56270;BME280;42176;43.240;27.880;2023-03-15T03:08:42;99328.28;;;5.05;100.00
56270;BME280;42176;43.240;27.880;2023-03-15T03:11:12;99346.34;;;5.31;100.00
56270;BME280;42176;43.240;27.880;2023-03-15T03:13:37;99329.91;;;5.15;100.00
56270;BME280;42176;43.240;27.880;2023-03-15T03:16:03;99341.00;;;5.39;100.00
56270;BME280;42176;43.240;27.880;2023-03-15T03:18:29;99349.00;;;5.29;100.00
56270;BME280;42176;43.240;27.880;2023-03-15T03:21:01;99352.44;;;5.34;100.00
56270;BME280;42176;43.240;27.880;2023-03-15T03:23:29;99346.97;;;5.50;100.00
56270;BME280;42176;43.240;27.880;2023-03-15T03:25:56;99343.69;;;5.32;100.00
56270;BME280;42176;43.240;27.880;2023-03-15T03:28:24;99343.75;;;5.29;100.00
56270;BME280;42176;43.240;27.880;2023-03-15T03:30:51;99357.50;;;5.47;100.00
56270;BME280;42176;43.240;27.880;2023-03-15T03:33:17;99343.47;;;5.49;100.00
56270;BME280;42176;43.240;27.880;2023-03-15T03:35:43;99343.69;;;5.32;100.00
56270;BME280;42176;43.240;27.880;2023-03-15T03:38:10;99345.41;;;5.37;100.00
56270;BME280;42176;43.240;27.880;2023-03-15T03:40:36;99337.50;;;5.37;100.00
56270;BME280;42176;43.240;27.880;2023-03-15T03:43:02;99328.69;;;5.41;100.00
56270;BME280;42176;43.240;27.880;2023-03-15T03:45:27;99331.44;;;5.31;100.00
56270;BME280;42176;43.240;27.880;2023-03-15T03:47:53;99341.09;;;5.31;100.00
56270;BME280;42176;43.240;27.880;2023-03-15T03:50:18;99334.88;;;5.37;100.00
56270;BME280;42176;43.240;27.880;2023-03-15T03:52:43;99341.81;;;5.44;100.00
56270;BME280;42176;43.240;27.880;2023-03-15T03:55:12;99333.09;;;5.39;100.00
56270;BME280;42176;43.240;27.880;2023-03-15T03:57:41;99338.41;;;5.36;100.00
56270;BME280;42176;43.240;27.880;2023-03-15T04:00:09;99340.97;;;5.42;100.00
56270;BME280;42176;43.240;27.880;2023-03-15T04:02:36;99336.56;;;5.44;100.00
56270;BME280;42176;43.240;27.880;2023-03-15T04:05:01;99332.94;;;5.51;100.00
56270;BME280;42176;43.240;27.880;2023-03-15T04:07:27;99334.63;;;5.54;100.00
56270;BME280;42176;43.240;27.880;2023-03-15T04:09:52;99330.88;;;5.72;100.00
56270;BME280;42176;43.240;27.880;2023-03-15T04:12:18;99333.84;;;5.48;100.00
56270;BME280;42176;43.240;27.880;2023-03-15T04:14:43;99327.72;;;5.48;100.00
56270;BME280;42176;43.240;27.880;2023-03-15T04:17:09;99312.78;;;5.50;100.00
56270;BME280;42176;43.240;27.880;2023-03-15T04:19:35;99314.41;;;5.59;100.00
56270;BME280;42176;43.240;27.880;2023-03-15T04:22:00;99309.19;;;5.57;100.00
56270;BME280;42176;43.240;27.880;2023-03-15T04:24:33;99317.03;;;5.59;100.00
56270;BME280;42176;43.240;27.880;2023-03-15T04:27:00;99316.88;;;5.70;100.00
56270;BME280;42176;43.240;27.880;2023-03-15T04:29:26;99318.91;;;5.52;100.00
56270;BME280;42176;43.240;27.880;2023-03-15T04:31:51;99325.63;;;5.72;100.00
56270;BME280;42176;43.240;27.880;2023-03-15T04:34:17;99321.34;;;5.66;100.00
56270;BME280;42176;43.240;27.880;2023-03-15T04:36:42;99323.06;;;5.66;100.00
56270;BME280;42176;43.240;27.880;2023-03-15T04:39:08;99317.75;;;5.72;100.00
56270;BME280;42176;43.240;27.880;2023-03-15T04:41:34;99311.66;;;5.67;100.00
56270;BME280;42176;43.240;27.880;2023-03-15T04:44:03;99306.53;;;5.60;100.00
56270;BME280;42176;43.240;27.880;2023-03-15T04:46:31;99315.34;;;5.56;100.00
56270;BME280;42176;43.240;27.880;2023-03-15T04:48:58;99317.03;;;5.59;100.00
56270;BME280;42176;43.240;27.880;2023-03-15T04:51:23;99320.50;;;5.62;100.00
56270;BME280;42176;43.240;27.880;2023-03-15T04:53:49;99317.69;;;5.75;100.00
56270;BME280;42176;43.240;27.880;2023-03-15T04:56:15;99310.84;;;5.61;100.00
56270;BME280;42176;43.240;27.880;2023-03-15T05:01:05;99325.44;;;5.84;100.00
56270;BME280;42176;43.240;27.880;2023-03-15T05:03:31;99324.34;;;5.98;100.00
56270;BME280;42176;43.240;27.880;2023-03-15T05:05:56;99319.97;;;5.97;100.00
56270;BME280;42176;43.240;27.880;2023-03-15T05:08:22;99321.44;;;6.16;100.00
56270;BME280;42176;43.240;27.880;2023-03-15T05:10:47;99307.47;;;6.11;100.00
56270;BME280;42176;43.240;27.880;2023-03-15T05:13:13;99307.06;;;6.36;100.00
56270;BME280;42176;43.240;27.880;2023-03-15T05:15:38;99298.75;;;6.58;100.00
56270;BME280;42176;43.240;27.880;2023-03-15T05:18:04;99291.69;;;6.60;100.00
56270;BME280;42176;43.240;27.880;2023-03-15T05:20:29;99295.22;;;6.60;100.00
56270;BME280;42176;43.240;27.880;2023-03-15T05:22:55;99280.28;;;7.03;100.00
56270;BME280;42176;43.240;27.880;2023-03-15T05:25:20;99289.00;;;7.07;100.00
56270;BME280;42176;43.240;27.880;2023-03-15T05:27:46;99287.09;;;6.71;100.00
56270;BME280;42176;43.240;27.880;2023-03-15T05:30:12;99286.31;;;6.66;100.00
56270;BME280;42176;43.240;27.880;2023-03-15T05:32:39;99283.75;;;7.07;100.00
56270;BME280;42176;43.240;27.880;2023-03-15T05:35:09;99283.91;;;6.97;100.00
56270;BME280;42176;43.240;27.880;2023-03-15T05:37:35;99280.75;;;7.61;97.60
56270;BME280;42176;43.240;27.880;2023-03-15T05:40:01;99258.09;;;7.53;96.32
56270;BME280;42176;43.240;27.880;2023-03-15T05:42:28;99274.50;;;7.28;96.70
56270;BME280;42176;43.240;27.880;2023-03-15T05:44:55;99261.31;;;7.28;98.26
56270;BME280;42176;43.240;27.880;2023-03-15T05:47:21;99249.44;;;7.08;99.03
56270;BME280;42176;43.240;27.880;2023-03-15T05:49:48;99264.91;;;7.24;98.62
56270;BME280;42176;43.240;27.880;2023-03-15T05:52:15;99267.88;;;7.47;97.17
56270;BME280;42176;43.240;27.880;2023-03-15T05:54:40;99264.34;;;7.49;96.91
56270;BME280;42176;43.240;27.880;2023-03-15T05:57:06;99266.41;;;7.73;95.25
56270;BME280;42176;43.240;27.880;2023-03-15T05:59:32;99266.00;;;7.53;95.43
56270;BME280;42176;43.240;27.880;2023-03-15T06:01:57;99253.88;;;7.82;94.56
56270;BME280;42176;43.240;27.880;2023-03-15T06:04:23;99249.13;;;7.96;93.63
56270;BME280;42176;43.240;27.880;2023-03-15T06:06:50;99248.50;;;8.21;92.16
56270;BME280;42176;43.240;27.880;2023-03-15T06:09:15;99229.03;;;8.58;90.40
56270;BME280;42176;43.240;27.880;2023-03-15T06:11:41;99228.69;;;9.01;86.98
56270;BME280;42176;43.240;27.880;2023-03-15T06:14:06;99226.59;;;11.18;77.08
56270;BME280;42176;43.240;27.880;2023-03-15T06:16:32;99219.50;;;13.44;63.78
56270;BME280;42176;43.240;27.880;2023-03-15T06:18:57;99214.06;;;13.65;58.74
56270;BME280;42176;43.240;27.880;2023-03-15T06:21:23;99217.06;;;14.11;55.75
56270;BME280;42176;43.240;27.880;2023-03-15T06:23:48;99222.66;;;14.24;53.99
56270;BME280;42176;43.240;27.880;2023-03-15T06:26:13;99223.50;;;15.10;51.86
56270;BME280;42176;43.240;27.880;2023-03-15T06:28:40;99216.13;;;14.97;51.90
56270;BME280;42176;43.240;27.880;2023-03-15T06:31:10;99189.91;;;15.68;49.03
56270;BME280;42176;43.240;27.880;2023-03-15T06:33:36;99193.00;;;15.92;48.12
56270;BME280;42176;43.240;27.880;2023-03-15T06:36:02;99195.16;;;15.23;49.81
56270;BME280;42176;43.240;27.880;2023-03-15T06:38:31;99202.59;;;13.45;53.15
56270;BME280;42176;43.240;27.880;2023-03-15T06:40:58;99197.94;;;13.68;55.43
56270;BME280;42176;43.240;27.880;2023-03-15T06:43:29;99197.91;;;14.38;52.44
56270;BME280;42176;43.240;27.880;2023-03-15T06:45:55;99192.94;;;15.15;50.46
56270;BME280;42176;43.240;27.880;2023-03-15T06:48:23;99196.03;;;14.40;51.63
56270;BME280;42176;43.240;27.880;2023-03-15T06:50:48;99178.09;;;14.77;51.04
56270;BME280;42176;43.240;27.880;2023-03-15T06:53:14;99190.31;;;15.14;49.46
56270;BME280;42176;43.240;27.880;2023-03-15T06:55:40;99190.47;;;15.11;49.49
56270;BME280;42176;43.240;27.880;2023-03-15T06:58:05;99202.31;;;14.39;51.33
56270;BME280;42176;43.240;27.880;2023-03-15T07:00:31;99205.31;;;15.16;50.25
56270;BME280;42176;43.240;27.880;2023-03-15T07:02:56;99210.03;;;15.27;50.29
56270;BME280;42176;43.240;27.880;2023-03-15T07:05:22;99216.75;;;14.18;53.58
56270;BME280;42176;43.240;27.880;2023-03-15T07:07:47;99212.09;;;14.90;53.07
56270;BME280;42176;43.240;27.880;2023-03-15T07:10:12;99211.22;;;14.73;51.86
56270;BME280;42176;43.240;27.880;2023-03-15T07:12:38;99212.22;;;13.84;55.22
56270;BME280;42176;43.240;27.880;2023-03-15T07:15:04;99217.91;;;13.94;55.39
56270;BME280;42176;43.240;27.880;2023-03-15T07:17:32;99214.75;;;13.32;58.88
56270;BME280;42176;43.240;27.880;2023-03-15T07:19:57;99208.41;;;14.41;54.68
56270;BME280;42176;43.240;27.880;2023-03-15T07:22:23;99222.25;;;14.32;54.62
56270;BME280;42176;43.240;27.880;2023-03-15T07:24:49;99225.72;;;13.99;55.79
56270;BME280;42176;43.240;27.880;2023-03-15T07:27:15;99225.75;;;13.43;56.90
56270;BME280;42176;43.240;27.880;2023-03-15T07:29:40;99220.59;;;13.02;60.28
56270;BME280;42176;43.240;27.880;2023-03-15T07:32:09;99213.94;;;14.03;56.51
56270;BME280;42176;43.240;27.880;2023-03-15T07:34:34;99217.19;;;15.11;52.77
56270;BME280;42176;43.240;27.880;2023-03-15T07:37:00;99229.56;;;14.62;53.53
56270;BME280;42176;43.240;27.880;2023-03-15T07:39:25;99208.06;;;15.15;52.02
56270;BME280;42176;43.240;27.880;2023-03-15T07:41:51;99242.88;;;13.18;57.41
56270;BME280;42176;43.240;27.880;2023-03-15T07:44:17;99239.56;;;12.75;60.96
56270;BME280;42176;43.240;27.880;2023-03-15T07:46:42;99242.75;;;12.00;64.49
56270;BME280;42176;43.240;27.880;2023-03-15T07:49:08;99242.13;;;11.94;65.72
56270;BME280;42176;43.240;27.880;2023-03-15T07:51:34;99241.53;;;12.70;60.50
56270;BME280;42176;43.240;27.880;2023-03-15T07:53:59;99229.31;;;11.83;64.02
56270;BME280;42176;43.240;27.880;2023-03-15T07:56:25;99251.03;;;10.55;71.55
56270;BME280;42176;43.240;27.880;2023-03-15T07:58:50;99242.84;;;11.08;70.73
56270;BME280;42176;43.240;27.880;2023-03-15T08:01:15;99259.91;;;10.77;69.41
56270;BME280;42176;43.240;27.880;2023-03-15T08:03:41;99249.53;;;9.67;79.14
56270;BME280;42176;43.240;27.880;2023-03-15T08:06:07;99246.47;;;11.30;73.82
56270;BME280;42176;43.240;27.880;2023-03-15T08:08:35;99251.50;;;10.66;74.24
56270;BME280;42176;43.240;27.880;2023-03-15T08:11:06;99228.19;;;11.88;70.57
56270;BME280;42176;43.240;27.880;2023-03-15T08:13:32;99242.06;;;10.82;72.84
56270;BME280;42176;43.240;27.880;2023-03-15T08:15:58;99224.25;;;12.99;63.30
56270;BME280;42176;43.240;27.880;2023-03-15T08:18:23;99229.91;;;13.49;58.38
56270;BME280;42176;43.240;27.880;2023-03-15T08:20:49;99221.69;;;13.90;55.55
56270;BME280;42176;43.240;27.880;2023-03-15T08:23:15;99237.09;;;13.66;57.13
56270;BME280;42176;43.240;27.880;2023-03-15T08:25:44;99231.91;;;12.67;62.27
56270;BME280;42176;43.240;27.880;2023-03-15T08:28:10;99226.91;;;11.99;67.69
56270;BME280;42176;43.240;27.880;2023-03-15T08:30:36;99221.91;;;14.03;59.30
56270;BME280;42176;43.240;27.880;2023-03-15T08:33:02;99216.56;;;13.50;56.20
56270;BME280;42176;43.240;27.880;2023-03-15T08:35:28;99220.13;;;12.73;60.80
56270;BME280;42176;43.240;27.880;2023-03-15T08:37:53;99219.25;;;13.68;58.74
56270;BME280;42176;43.240;27.880;2023-03-15T08:40:20;99228.47;;;12.84;60.38
56270;BME280;42176;43.240;27.880;2023-03-15T08:42:48;99210.34;;;12.54;63.44
56270;BME280;42176;43.240;27.880;2023-03-15T08:45:14;99223.88;;;12.48;64.21
56270;BME280;42176;43.240;27.880;2023-03-15T08:47:43;99222.31;;;12.23;67.59
56270;BME280;42176;43.240;27.880;2023-03-15T08:50:12;99226.03;;;11.76;70.76
56270;BME280;42176;43.240;27.880;2023-03-15T08:52:39;99240.41;;;11.26;73.31
56270;BME280;42176;43.240;27.880;2023-03-15T08:55:05;99237.22;;;11.18;75.54
56270;BME280;42176;43.240;27.880;2023-03-15T08:57:31;99236.00;;;10.03;79.85
56270;BME280;42176;43.240;27.880;2023-03-15T09:00:01;99240.16;;;10.86;79.49
56270;BME280;42176;43.240;27.880;2023-03-15T09:02:32;99234.22;;;10.29;79.85
56270;BME280;42176;43.240;27.880;2023-03-15T09:04:57;99213.84;;;10.31;81.45
56270;BME280;42176;43.240;27.880;2023-03-15T09:07:23;99239.19;;;10.40;80.36
56270;BME280;42176;43.240;27.880;2023-03-15T09:09:48;99215.66;;;10.56;81.08
56270;BME280;42176;43.240;27.880;2023-03-15T09:12:15;99212.03;;;10.33;81.68
56270;BME280;42176;43.240;27.880;2023-03-15T09:14:41;99207.63;;;9.54;84.33
56270;BME280;42176;43.240;27.880;2023-03-15T09:17:08;99220.34;;;9.70;86.86
56270;BME280;42176;43.240;27.880;2023-03-15T09:19:33;99215.78;;;9.75;87.12
56270;BME280;42176;43.240;27.880;2023-03-15T09:21:59;99214.50;;;9.87;85.90
56270;BME280;42176;43.240;27.880;2023-03-15T09:24:25;99210.31;;;9.53;87.52
56270;BME280;42176;43.240;27.880;2023-03-15T09:26:50;99206.53;;;9.62;86.46
56270;BME280;42176;43.240;27.880;2023-03-15T09:29:15;99214.03;;;9.74;87.86
56270;BME280;42176;43.240;27.880;2023-03-15T09:31:41;99206.81;;;9.79;85.07
56270;BME280;42176;43.240;27.880;2023-03-15T09:34:06;99205.59;;;9.63;86.42
56270;BME280;42176;43.240;27.880;2023-03-15T09:36:32;99218.00;;;9.60;88.19
56270;BME280;42176;43.240;27.880;2023-03-15T09:38:59;99198.47;;;9.65;86.37
56270;BME280;42176;43.240;27.880;2023-03-15T09:41:33;99195.63;;;9.44;87.85
56270;BME280;42176;43.240;27.880;2023-03-15T09:52:42;99178.91;;;9.15;95.59
56270;BME280;42176;43.240;27.880;2023-03-15T09:55:12;99182.16;;;9.23;95.38
56270;BME280;42176;43.240;27.880;2023-03-15T10:03:15;99184.69;;;8.98;96.84
56270;BME280;42176;43.240;27.880;2023-03-15T10:05:46;99175.78;;;9.31;96.19
56270;BME280;42176;43.240;27.880;2023-03-15T10:08:15;99173.31;;;9.51;91.78
56270;BME280;42176;43.240;27.880;2023-03-15T10:11:09;99169.56;;;9.32;92.24
56270;BME280;42176;43.240;27.880;2023-03-15T10:21:37;99152.38;;;9.18;97.75
56270;BME280;42176;43.240;27.880;2023-03-15T10:24:13;99151.56;;;9.43;95.82
56270;BME280;42176;43.240;27.880;2023-03-15T10:26:40;99152.13;;;9.53;94.78
56270;BME280;42176;43.240;27.880;2023-03-15T10:29:14;99146.59;;;9.34;96.28
56270;BME280;42176;43.240;27.880;2023-03-15T10:31:41;99153.06;;;9.23;95.79
56270;BME280;42176;43.240;27.880;2023-03-15T10:34:09;99143.97;;;9.32;96.94
56270;BME280;42176;43.240;27.880;2023-03-15T10:36:49;99137.75;;;9.06;97.68
56270;BME280;42176;43.240;27.880;2023-03-15T10:39:18;99148.19;;;9.11;98.98
56270;BME280;42176;43.240;27.880;2023-03-15T10:41:46;99129.50;;;9.17;97.28
56270;BME280;42176;43.240;27.880;2023-03-15T10:44:23;99137.41;;;9.44;95.04
56270;BME280;42176;43.240;27.880;2023-03-15T10:47:05;99122.25;;;9.22;97.61
56270;BME280;42176;43.240;27.880;2023-03-15T10:49:36;99128.16;;;9.57;97.23
56270;BME280;42176;43.240;27.880;2023-03-15T10:52:03;99100.91;;;9.28;96.08
56270;BME280;42176;43.240;27.880;2023-03-15T10:54:31;99100.59;;;9.11;98.02
56270;BME280;42176;43.240;27.880;2023-03-15T10:57:05;99109.41;;;8.83;98.66
56270;BME280;42176;43.240;27.880;2023-03-15T10:59:36;99115.13;;;8.97;99.21
56270;BME280;42176;43.240;27.880;2023-03-15T11:04:40;99104.38;;;9.31;95.33
56270;BME280;42176;43.240;27.880;2023-03-15T11:07:07;99091.25;;;9.01;96.13
56270;BME280;42176;43.240;27.880;2023-03-15T11:09:41;99102.00;;;8.94;100.00
56270;BME280;42176;43.240;27.880;2023-03-15T11:12:09;99107.94;;;8.73;100.00
56270;BME280;42176;43.240;27.880;2023-03-15T11:14:41;99082.47;;;8.72;100.00
56270;BME280;42176;43.240;27.880;2023-03-15T11:17:16;99078.34;;;8.61;100.00
56270;BME280;42176;43.240;27.880;2023-03-15T11:19:48;99083.56;;;8.64;100.00
56270;BME280;42176;43.240;27.880;2023-03-15T11:22:15;99087.16;;;8.62;100.00
56270;BME280;42176;43.240;27.880;2023-03-15T11:24:41;99088.28;;;8.83;100.00
56270;BME280;42176;43.240;27.880;2023-03-15T11:27:18;99065.41;;;8.82;100.00
56270;BME280;42176;43.240;27.880;2023-03-15T11:29:48;99066.72;;;8.95;100.00
56270;BME280;42176;43.240;27.880;2023-03-15T11:32:21;99051.31;;;8.81;100.00
56270;BME280;42176;43.240;27.880;2023-03-15T11:35:05;99056.25;;;8.92;100.00
56270;BME280;42176;43.240;27.880;2023-03-15T11:37:36;99061.44;;;8.38;100.00
56270;BME280;42176;43.240;27.880;2023-03-15T11:42:53;99050.44;;;8.54;100.00
56270;BME280;42176;43.240;27.880;2023-03-15T11:45:30;99047.78;;;8.54;100.00
56270;BME280;42176;43.240;27.880;2023-03-15T11:48:03;99064.44;;;8.56;100.00
56270;BME280;42176;43.240;27.880;2023-03-15T11:50:32;99057.03;;;8.67;100.00
56270;BME280;42176;43.240;27.880;2023-03-15T11:52:58;99050.56;;;9.32;100.00
56270;BME280;42176;43.240;27.880;2023-03-15T11:55:28;99052.59;;;9.49;100.00
56270;BME280;42176;43.240;27.880;2023-03-15T11:57:55;99035.91;;;9.72;99.32
56270;BME280;42176;43.240;27.880;2023-03-15T12:03:41;99055.91;;;9.55;100.00
56270;BME280;42176;43.240;27.880;2023-03-15T12:06:34;99046.03;;;9.60;100.00
56270;BME280;42176;43.240;27.880;2023-03-15T12:09:37;99044.78;;;9.45;100.00
56270;BME280;42176;43.240;27.880;2023-03-15T12:11:45;99057.53;;;9.59;100.00
56270;BME280;42176;43.240;27.880;2023-03-15T12:14:28;99061.25;;;9.28;100.00
56270;BME280;42176;43.240;27.880;2023-03-15T12:23:02;99066.91;;;9.43;100.00
56270;BME280;42176;43.240;27.880;2023-03-15T12:28:24;99065.50;;;9.33;100.00
56270;BME280;42176;43.240;27.880;2023-03-15T12:30:57;99059.63;;;8.97;100.00
56270;BME280;42176;43.240;27.880;2023-03-15T12:33:24;99057.13;;;8.93;100.00
56270;BME280;42176;43.240;27.880;2023-03-15T12:35:59;99062.94;;;8.76;100.00
56270;BME280;42176;43.240;27.880;2023-03-15T12:38:34;99061.84;;;8.83;100.00
56270;BME280;42176;43.240;27.880;2023-03-15T12:41:06;99065.66;;;8.73;100.00
56270;BME280;42176;43.240;27.880;2023-03-15T12:54:46;99072.59;;;9.05;100.00
56270;BME280;42176;43.240;27.880;2023-03-15T12:57:20;99061.34;;;8.98;100.00
56270;BME280;42176;43.240;27.880;2023-03-15T13:18:24;99053.81;;;9.13;100.00
56270;BME280;42176;43.240;27.880;2023-03-15T13:23:43;99051.97;;;9.42;100.00
56270;BME280;42176;43.240;27.880;2023-03-15T13:29:01;99056.06;;;9.51;100.00
56270;BME280;42176;43.240;27.880;2023-03-15T13:31:30;99036.06;;;8.90;100.00
56270;BME280;42176;43.240;27.880;2023-03-15T13:34:04;99056.72;;;9.05;100.00
56270;BME280;42176;43.240;27.880;2023-03-15T13:36:40;99058.63;;;8.73;100.00
56270;BME280;42176;43.240;27.880;2023-03-15T13:41:40;99045.38;;;8.45;100.00
56270;BME280;42176;43.240;27.880;2023-03-15T13:44:19;99045.38;;;8.45;100.00
56270;BME280;42176;43.240;27.880;2023-03-15T13:46:49;99048.38;;;8.62;100.00
56270;BME280;42176;43.240;27.880;2023-03-15T13:49:15;99043.56;;;8.47;100.00
56270;BME280;42176;43.240;27.880;2023-03-15T13:51:42;99050.53;;;8.49;100.00
56270;BME280;42176;43.240;27.880;2023-03-15T13:54:16;99038.22;;;8.50;100.00
56270;BME280;42176;43.240;27.880;2023-03-15T14:02:24;99034.81;;;9.02;100.00
56270;BME280;42176;43.240;27.880;2023-03-15T14:05:00;99039.88;;;9.08;100.00
56270;BME280;42176;43.240;27.880;2023-03-15T14:07:28;99041.84;;;9.03;100.00
56270;BME280;42176;43.240;27.880;2023-03-15T14:12:44;99009.69;;;8.61;100.00
56270;BME280;42176;43.240;27.880;2023-03-15T14:15:17;99027.84;;;8.72;100.00
56270;BME280;42176;43.240;27.880;2023-03-15T14:20:24;99028.81;;;8.70;100.00
56270;BME280;42176;43.240;27.880;2023-03-15T14:22:56;99030.22;;;8.80;100.00
56270;BME280;42176;43.240;27.880;2023-03-15T14:25:22;99025.03;;;8.77;100.00
56270;BME280;42176;43.240;27.880;2023-03-15T14:27:47;99030.06;;;8.58;100.00
56270;BME280;42176;43.240;27.880;2023-03-15T14:30:21;99025.91;;;8.49;100.00
56270;BME280;42176;43.240;27.880;2023-03-15T14:32:53;99025.16;;;8.44;100.00
56270;BME280;42176;43.240;27.880;2023-03-15T14:35:27;99027.09;;;8.38;100.00
56270;BME280;42176;43.240;27.880;2023-03-15T14:38:24;99025.97;;;8.46;100.00